sensor_id;sensor_type;location;lat;lon;timestamp;pressure;altitude;pressure_sealevel;temperature;humidity
32851;BME280;19202;48.992;8.390;2022-09-28T00:05:01;98613.47;;;12.29;91.26
32851;BME280;19202;48.992;8.390;2022-09-28T00:10:39;98603.00;;;12.27;91.64
32851;BME280;19202;48.992;8.390;2022-09-28T00:16:23;98585.91;;;12.31;91.72
32851;BME280;19202;48.992;8.390;2022-09-28T00:22:01;98577.41;;;12.26;91.85
32851;BME280;19202;48.992;8.390;2022-09-28T00:27:39;98545.41;;;12.29;92.19
32851;BME280;19202;48.992;8.390;2022-09-28T00:33:18;98551.13;;;12.23;93.34
32851;BME280;19202;48.992;8.390;2022-09-28T00:38:56;98547.31;;;12.15;95.88
32851;BME280;19202;48.992;8.390;2022-09-28T00:44:39;98529.63;;;12.15;95.29
32851;BME280;19202;48.992;8.390;2022-09-28T00:50:28;98522.09;;;12.09;97.28
32851;BME280;19202;48.992;8.390;2022-09-28T00:56:11;98510.75;;;12.07;98.28
32851;BME280;19202;48.992;8.390;2022-09-28T01:01:50;98501.63;;;12.11;99.73
32851;BME280;19202;48.992;8.390;2022-09-28T01:07:28;98489.84;;;12.15;99.12
32851;BME280;19202;48.992;8.390;2022-09-28T01:13:05;98484.56;;;12.15;100.00
32851;BME280;19202;48.992;8.390;2022-09-28T01:18:56;98459.28;;;12.22;100.00
32851;BME280;19202;48.992;8.390;2022-09-28T01:24:44;98448.97;;;12.30;99.97
32851;BME280;19202;48.992;8.390;2022-09-28T01:30:23;98459.69;;;12.29;100.00
32851;BME280;19202;48.992;8.390;2022-09-28T01:36:17;98440.72;;;12.22;100.00
32851;BME280;19202;48.992;8.390;2022-09-28T01:42:03;98434.25;;;12.26;100.00
32851;BME280;19202;48.992;8.390;2022-09-28T01:47:44;98444.00;;;12.26;100.00
32851;BME280;19202;48.992;8.390;2022-09-28T01:53:38;98436.16;;;12.24;100.00
32851;BME280;19202;48.992;8.390;2022-09-28T01:59:21;98436.16;;;12.24;100.00
32851;BME280;19202;48.992;8.390;2022-09-28T02:05:09;98439.34;;;12.29;100.00
32851;BME280;19202;48.992;8.390;2022-09-28T02:10:54;98446.72;;;12.37;100.00
32851;BME280;19202;48.992;8.390;2022-09-28T02:16:39;98430.94;;;12.35;100.00
32851;BME280;19202;48.992;8.390;2022-09-28T02:22:28;98417.38;;;12.27;100.00
32851;BME280;19202;48.992;8.390;2022-09-28T02:28:11;98428.72;;;12.29;100.00
32851;BME280;19202;48.992;8.390;2022-09-28T02:33:51;98426.91;;;12.30;100.00
32851;BME280;19202;48.992;8.390;2022-09-28T02:39:30;98427.03;;;12.28;100.00
32851;BME280;19202;48.992;8.390;2022-09-28T02:51:31;98420.03;;;12.27;100.00
32851;BME280;19202;48.992;8.390;2022-09-28T03:03:32;98419.00;;;12.17;100.00
32851;BME280;19202;48.992;8.390;2022-09-28T03:09:14;98422.41;;;12.19;100.00
32851;BME280;19202;48.992;8.390;2022-09-28T03:15:18;98427.25;;;12.25;100.00
32851;BME280;19202;48.992;8.390;2022-09-28T03:20:57;98433.50;;;12.24;100.00
32851;BME280;19202;48.992;8.390;2022-09-28T03:26:37;98432.00;;;12.33;100.00
32851;BME280;19202;48.992;8.390;2022-09-28T03:32:15;98431.66;;;12.37;100.00
32851;BME280;19202;48.992;8.390;2022-09-28T03:37:54;98433.69;;;12.34;100.00
32851;BME280;19202;48.992;8.390;2022-09-28T03:43:32;98423.59;;;12.39;100.00
32851;BME280;19202;48.992;8.390;2022-09-28T03:49:10;98417.22;;;12.41;100.00
32851;BME280;19202;48.992;8.390;2022-09-28T03:54:48;98421.78;;;12.39;100.00
32851;BME280;19202;48.992;8.390;2022-09-28T04:00:26;98417.97;;;12.43;100.00
32851;BME280;19202;48.992;8.390;2022-09-28T04:06:04;98415.91;;;12.47;100.00
32851;BME280;19202;48.992;8.390;2022-09-28T04:11:43;98414.84;;;12.49;100.00
32851;BME280;19202;48.992;8.390;2022-09-28T04:17:21;98425.22;;;12.52;100.00
32851;BME280;19202;48.992;8.390;2022-09-28T04:23:00;98435.09;;;12.50;100.00
32851;BME280;19202;48.992;8.390;2022-09-28T04:28:38;98430.97;;;12.46;100.00
32851;BME280;19202;48.992;8.390;2022-09-28T04:34:37;98431.66;;;12.37;100.00
32851;BME280;19202;48.992;8.390;2022-09-28T04:40:19;98445.81;;;12.25;100.00
32851;BME280;19202;48.992;8.390;2022-09-28T04:46:00;98436.84;;;12.15;100.00
32851;BME280;19202;48.992;8.390;2022-09-28T04:51:39;98436.84;;;12.15;100.00
32851;BME280;19202;48.992;8.390;2022-09-28T04:57:17;98436.41;;;12.21;100.00
32851;BME280;19202;48.992;8.390;2022-09-28T05:02:55;98433.00;;;12.19;100.00
32851;BME280;19202;48.992;8.390;2022-09-28T05:08:33;98434.69;;;12.20;100.00
32851;BME280;19202;48.992;8.390;2022-09-28T05:14:12;98439.78;;;12.23;100.00
32851;BME280;19202;48.992;8.390;2022-09-28T05:19:49;98450.38;;;12.23;100.00
32851;BME280;19202;48.992;8.390;2022-09-28T05:25:27;98458.34;;;12.23;100.00
32851;BME280;19202;48.992;8.390;2022-09-28T05:31:06;98460.13;;;12.23;100.00
32851;BME280;19202;48.992;8.390;2022-09-28T05:36:44;98473.59;;;12.20;100.00
32851;BME280;19202;48.992;8.390;2022-09-28T05:42:23;98477.34;;;12.17;100.00
32851;BME280;19202;48.992;8.390;2022-09-28T05:48:01;98484.13;;;12.21;100.00
32851;BME280;19202;48.992;8.390;2022-09-28T05:53:38;98475.19;;;12.22;100.00
32851;BME280;19202;48.992;8.390;2022-09-28T05:59:17;98475.19;;;12.22;100.00
32851;BME280;19202;48.992;8.390;2022-09-28T06:04:55;98470.13;;;12.19;100.00
32851;BME280;19202;48.992;8.390;2022-09-28T06:10:34;98484.13;;;12.21;100.00
32851;BME280;19202;48.992;8.390;2022-09-28T06:16:15;98480.72;;;12.19;100.00
32851;BME280;19202;48.992;8.390;2022-09-28T06:21:53;98486.03;;;12.19;100.00
32851;BME280;19202;48.992;8.390;2022-09-28T06:27:32;98493.25;;;12.17;100.00
32851;BME280;19202;48.992;8.390;2022-09-28T06:33:12;98500.78;;;12.11;100.00
32851;BME280;19202;48.992;8.390;2022-09-28T06:38:51;98501.28;;;12.16;100.00
32851;BME280;19202;48.992;8.390;2022-09-28T06:44:29;98513.78;;;12.26;100.00
32851;BME280;19202;48.992;8.390;2022-09-28T06:50:08;98519.63;;;12.31;100.00
32851;BME280;19202;48.992;8.390;2022-09-28T06:55:49;98520.13;;;12.36;100.00
32851;BME280;19202;48.992;8.390;2022-09-28T07:01:26;98533.47;;;12.47;100.00
32851;BME280;19202;48.992;8.390;2022-09-28T07:07:04;98549.75;;;12.66;100.00
32851;BME280;19202;48.992;8.390;2022-09-28T07:12:42;98565.94;;;12.74;100.00
32851;BME280;19202;48.992;8.390;2022-09-28T07:18:21;98570.31;;;12.76;100.00
32851;BME280;19202;48.992;8.390;2022-09-28T07:24:00;98584.09;;;12.81;100.00
32851;BME280;19202;48.992;8.390;2022-09-28T07:29:38;98589.47;;;12.92;100.00
32851;BME280;19202;48.992;8.390;2022-09-28T07:35:16;98596.94;;;13.10;99.59
32851;BME280;19202;48.992;8.390;2022-09-28T07:40:55;98599.16;;;13.40;99.10
32851;BME280;19202;48.992;8.390;2022-09-28T07:46:53;98604.94;;;13.69;96.76
32851;BME280;19202;48.992;8.390;2022-09-28T07:52:33;98596.91;;;13.92;94.11
32851;BME280;19202;48.992;8.390;2022-09-28T07:58:12;98606.81;;;14.01;92.12
32851;BME280;19202;48.992;8.390;2022-09-28T08:03:50;98613.00;;;14.13;92.07
32851;BME280;19202;48.992;8.390;2022-09-28T08:09:33;98623.66;;;14.24;91.06
32851;BME280;19202;48.992;8.390;2022-09-28T08:15:12;98630.56;;;14.26;91.37
32851;BME280;19202;48.992;8.390;2022-09-28T08:20:53;98638.13;;;14.32;90.80
32851;BME280;19202;48.992;8.390;2022-09-28T08:26:50;98640.50;;;14.35;90.41
32851;BME280;19202;48.992;8.390;2022-09-28T08:32:27;98646.91;;;14.33;88.73
32851;BME280;19202;48.992;8.390;2022-09-28T08:38:07;98652.22;;;14.33;88.27
32851;BME280;19202;48.992;8.390;2022-09-28T08:49:53;98663.72;;;14.33;87.64
32851;BME280;19202;48.992;8.390;2022-09-28T08:55:34;98668.81;;;14.48;86.73
32851;BME280;19202;48.992;8.390;2022-09-28T09:01:16;98668.84;;;14.59;86.63
32851;BME280;19202;48.992;8.390;2022-09-28T09:07:06;98671.25;;;14.62;84.59
32851;BME280;19202;48.992;8.390;2022-09-28T09:19:09;98688.56;;;15.00;80.63
32851;BME280;19202;48.992;8.390;2022-09-28T09:25:17;98686.72;;;15.45;81.22
32851;BME280;19202;48.992;8.390;2022-09-28T09:42:51;98704.06;;;16.03;75.54
32851;BME280;19202;48.992;8.390;2022-09-28T09:48:54;98704.66;;;16.06;75.50
32851;BME280;19202;48.992;8.390;2022-09-28T10:00:30;98702.25;;;16.03;75.04
32851;BME280;19202;48.992;8.390;2022-09-28T10:06:12;98710.47;;;16.12;73.99
32851;BME280;19202;48.992;8.390;2022-09-28T10:11:52;98704.75;;;15.84;71.96
32851;BME280;19202;48.992;8.390;2022-09-28T10:17:31;98721.81;;;15.61;73.55
32851;BME280;19202;48.992;8.390;2022-09-28T10:23:20;98705.97;;;15.49;73.62
32851;BME280;19202;48.992;8.390;2022-09-28T10:29:03;98710.69;;;15.45;73.52
32851;BME280;19202;48.992;8.390;2022-09-28T10:34:41;98713.81;;;15.61;74.65
32851;BME280;19202;48.992;8.390;2022-09-28T10:46:20;98715.22;;;16.70;69.20
32851;BME280;19202;48.992;8.390;2022-09-28T10:52:00;98720.03;;;17.06;66.87
32851;BME280;19202;48.992;8.390;2022-09-28T10:57:38;98703.34;;;17.23;65.80
32851;BME280;19202;48.992;8.390;2022-09-28T11:03:25;98700.13;;;17.29;62.99
32851;BME280;19202;48.992;8.390;2022-09-28T11:09:28;98695.66;;;17.39;61.93
32851;BME280;19202;48.992;8.390;2022-09-28T11:15:16;98689.44;;;17.29;59.77
32851;BME280;19202;48.992;8.390;2022-09-28T11:21:21;98685.59;;;17.71;60.65
32851;BME280;19202;48.992;8.390;2022-09-28T11:26:59;98689.84;;;17.84;61.01
32851;BME280;19202;48.992;8.390;2022-09-28T11:32:42;98692.25;;;18.06;57.50
32851;BME280;19202;48.992;8.390;2022-09-28T11:38:42;98684.16;;;18.63;54.25
32851;BME280;19202;48.992;8.390;2022-09-28T11:44:38;98687.06;;;18.79;53.31
32851;BME280;19202;48.992;8.390;2022-09-28T11:50:21;98681.81;;;18.87;54.03
32851;BME280;19202;48.992;8.390;2022-09-28T12:02:19;98680.78;;;18.42;53.46
32851;BME280;19202;48.992;8.390;2022-09-28T12:08:05;98687.00;;;18.52;53.51
32851;BME280;19202;48.992;8.390;2022-09-28T12:13:47;98678.75;;;18.73;53.98
32851;BME280;19202;48.992;8.390;2022-09-28T12:19:37;98663.06;;;19.14;52.85
32851;BME280;19202;48.992;8.390;2022-09-28T12:25:20;98674.09;;;20.01;51.18
32851;BME280;19202;48.992;8.390;2022-09-28T12:31:08;98674.41;;;20.84;49.34
32851;BME280;19202;48.992;8.390;2022-09-28T12:37:21;98672.75;;;21.67;44.98
32851;BME280;19202;48.992;8.390;2022-09-28T12:48:44;98668.81;;;21.03;43.67
32851;BME280;19202;48.992;8.390;2022-09-28T12:54:40;98665.75;;;20.98;44.91
32851;BME280;19202;48.992;8.390;2022-09-28T13:00:30;98665.75;;;20.98;44.68
32851;BME280;19202;48.992;8.390;2022-09-28T13:06:34;98659.06;;;20.08;43.08
32851;BME280;19202;48.992;8.390;2022-09-28T13:12:24;98662.44;;;19.75;46.57
32851;BME280;19202;48.992;8.390;2022-09-28T13:23:56;98653.72;;;19.18;46.79
32851;BME280;19202;48.992;8.390;2022-09-28T13:29:38;98641.03;;;18.93;46.98
32851;BME280;19202;48.992;8.390;2022-09-28T13:35:19;98648.16;;;19.02;48.07
32851;BME280;19202;48.992;8.390;2022-09-28T13:52:43;98656.59;;;20.32;40.88
32851;BME280;19202;48.992;8.390;2022-09-28T13:58:32;98665.31;;;20.16;41.93
32851;BME280;19202;48.992;8.390;2022-09-28T14:04:18;98657.69;;;20.04;43.10
32851;BME280;19202;48.992;8.390;2022-09-28T14:34:01;98675.38;;;18.71;47.64
32851;BME280;19202;48.992;8.390;2022-09-28T14:39:44;98686.59;;;18.47;47.22
32851;BME280;19202;48.992;8.390;2022-09-28T14:45:41;98681.50;;;18.44;47.45
32851;BME280;19202;48.992;8.390;2022-09-28T14:57:16;98705.19;;;17.82;50.43
32851;BME280;19202;48.992;8.390;2022-09-28T15:02:59;98694.06;;;17.77;52.44
32851;BME280;19202;48.992;8.390;2022-09-28T15:08:38;98695.03;;;17.85;53.31
32851;BME280;19202;48.992;8.390;2022-09-28T15:14:17;98714.47;;;17.78;54.81
32851;BME280;19202;48.992;8.390;2022-09-28T15:20:02;98700.66;;;17.53;56.08
32851;BME280;19202;48.992;8.390;2022-09-28T15:25:50;98703.63;;;17.50;58.88
32851;BME280;19202;48.992;8.390;2022-09-28T15:31:33;98706.66;;;17.46;59.13
32851;BME280;19202;48.992;8.390;2022-09-28T15:37:14;98702.72;;;17.40;59.85
32851;BME280;19202;48.992;8.390;2022-09-28T15:42:54;98717.25;;;17.17;61.40
32851;BME280;19202;48.992;8.390;2022-09-28T15:54:26;98723.31;;;16.89;62.35
32851;BME280;19202;48.992;8.390;2022-09-28T16:00:26;98724.81;;;16.52;62.93
32851;BME280;19202;48.992;8.390;2022-09-28T16:06:09;98734.34;;;15.81;65.34
32851;BME280;19202;48.992;8.390;2022-09-28T16:11:47;98734.44;;;15.37;65.63
32851;BME280;19202;48.992;8.390;2022-09-28T16:17:30;98725.94;;;15.32;65.63
32851;BME280;19202;48.992;8.390;2022-09-28T16:28:52;98718.06;;;15.53;65.52
32851;BME280;19202;48.992;8.390;2022-09-28T16:34:31;98720.44;;;15.67;65.88
32851;BME280;19202;48.992;8.390;2022-09-28T16:40:10;98727.38;;;15.58;65.49
32851;BME280;19202;48.992;8.390;2022-09-28T16:45:48;98732.84;;;15.57;65.66
32851;BME280;19202;48.992;8.390;2022-09-28T16:51:26;98759.63;;;15.33;68.57
32851;BME280;19202;48.992;8.390;2022-09-28T16:57:06;98766.88;;;14.87;69.51
32851;BME280;19202;48.992;8.390;2022-09-28T17:02:44;98775.16;;;14.49;71.59
32851;BME280;19202;48.992;8.390;2022-09-28T17:08:24;98765.38;;;14.26;70.82
32851;BME280;19202;48.992;8.390;2022-09-28T17:14:03;98757.41;;;14.26;69.08
32851;BME280;19202;48.992;8.390;2022-09-28T17:19:41;98771.66;;;14.49;69.30
32851;BME280;19202;48.992;8.390;2022-09-28T17:25:21;98765.16;;;14.64;69.42
32851;BME280;19202;48.992;8.390;2022-09-28T17:31:01;98761.88;;;14.71;69.54
32851;BME280;19202;48.992;8.390;2022-09-28T17:36:42;98761.78;;;14.73;70.35
32851;BME280;19202;48.992;8.390;2022-09-28T17:42:20;98762.69;;;14.50;71.98
32851;BME280;19202;48.992;8.390;2022-09-28T17:47:58;98775.00;;;14.39;72.13
32851;BME280;19202;48.992;8.390;2022-09-28T17:53:37;98769.41;;;14.31;72.45
32851;BME280;19202;48.992;8.390;2022-09-28T17:59:16;98778.38;;;14.30;72.96
32851;BME280;19202;48.992;8.390;2022-09-28T18:04:55;98786.44;;;14.29;72.96
32851;BME280;19202;48.992;8.390;2022-09-28T18:10:33;98787.75;;;14.23;73.27
32851;BME280;19202;48.992;8.390;2022-09-28T18:16:12;98800.00;;;14.02;74.70
32851;BME280;19202;48.992;8.390;2022-09-28T18:21:51;98799.91;;;13.91;74.90
32851;BME280;19202;48.992;8.390;2022-09-28T18:27:32;98803.84;;;13.98;74.73
32851;BME280;19202;48.992;8.390;2022-09-28T18:33:12;98803.72;;;14.00;74.72
32851;BME280;19202;48.992;8.390;2022-09-28T18:38:50;98810.78;;;13.88;75.33
32851;BME280;19202;48.992;8.390;2022-09-28T18:44:28;98816.03;;;13.77;76.04
32851;BME280;19202;48.992;8.390;2022-09-28T18:50:06;98823.22;;;13.64;76.32
32851;BME280;19202;48.992;8.390;2022-09-28T18:55:44;98830.88;;;13.56;77.59
32851;BME280;19202;48.992;8.390;2022-09-28T19:01:22;98833.00;;;13.51;78.19
32851;BME280;19202;48.992;8.390;2022-09-28T19:06:59;98840.56;;;13.44;78.69
32851;BME280;19202;48.992;8.390;2022-09-28T19:12:37;98843.13;;;13.46;79.05
32851;BME280;19202;48.992;8.390;2022-09-28T19:18:15;98848.31;;;13.47;79.35
32851;BME280;19202;48.992;8.390;2022-09-28T19:23:53;98856.28;;;13.47;79.13
32851;BME280;19202;48.992;8.390;2022-09-28T19:29:32;98851.16;;;13.57;78.53
32851;BME280;19202;48.992;8.390;2022-09-28T19:35:10;98847.94;;;13.65;78.09
32851;BME280;19202;48.992;8.390;2022-09-28T19:40:48;98848.19;;;13.62;78.67
32851;BME280;19202;48.992;8.390;2022-09-28T19:46:26;98858.31;;;13.44;80.65
32851;BME280;19202;48.992;8.390;2022-09-28T19:52:10;98871.59;;;13.44;80.19
32851;BME280;19202;48.992;8.390;2022-09-28T19:57:57;98879.66;;;13.42;80.85
32851;BME280;19202;48.992;8.390;2022-09-28T20:03:38;98871.38;;;13.47;79.95
32851;BME280;19202;48.992;8.390;2022-09-28T20:09:16;98886.69;;;13.56;78.93
32851;BME280;19202;48.992;8.390;2022-09-28T20:14:54;98888.38;;;13.57;78.47
32851;BME280;19202;48.992;8.390;2022-09-28T20:20:32;98898.19;;;13.44;79.59
32851;BME280;19202;48.992;8.390;2022-09-28T20:26:10;98890.09;;;13.33;79.72
32851;BME280;19202;48.992;8.390;2022-09-28T20:31:48;98883.72;;;13.23;80.06
32851;BME280;19202;48.992;8.390;2022-09-28T20:37:26;98879.88;;;13.14;79.89
32851;BME280;19202;48.992;8.390;2022-09-28T20:43:04;98876.91;;;13.06;80.43
32851;BME280;19202;48.992;8.390;2022-09-28T20:48:43;98886.47;;;13.09;79.55
32851;BME280;19202;48.992;8.390;2022-09-28T20:54:21;98895.06;;;13.00;79.37
32851;BME280;19202;48.992;8.390;2022-09-28T20:59:58;98886.97;;;12.89;79.59
32851;BME280;19202;48.992;8.390;2022-09-28T21:05:36;98896.63;;;12.77;79.83
32851;BME280;19202;48.992;8.390;2022-09-28T21:11:19;98884.91;;;12.67;80.27
32851;BME280;19202;48.992;8.390;2022-09-28T21:16:58;98887.63;;;12.53;80.57
32851;BME280;19202;48.992;8.390;2022-09-28T21:22:36;98887.81;;;12.37;81.28
32851;BME280;19202;48.992;8.390;2022-09-28T21:28:16;98886.09;;;12.36;81.40
32851;BME280;19202;48.992;8.390;2022-09-28T21:33:54;98874.03;;;12.45;80.74
32851;BME280;19202;48.992;8.390;2022-09-28T21:39:32;98877.75;;;12.42;80.51
32851;BME280;19202;48.992;8.390;2022-09-28T21:45:10;98879.84;;;12.37;81.15
32851;BME280;19202;48.992;8.390;2022-09-28T21:50:59;98872.31;;;12.31;81.34
32851;BME280;19202;48.992;8.390;2022-09-28T21:56:37;98883.25;;;12.13;81.99
32851;BME280;19202;48.992;8.390;2022-09-28T22:02:16;98880.72;;;12.11;81.88
32851;BME280;19202;48.992;8.390;2022-09-28T22:07:53;98876.91;;;12.15;81.25
32851;BME280;19202;48.992;8.390;2022-09-28T22:13:43;98875.19;;;12.14;81.06
32851;BME280;19202;48.992;8.390;2022-09-28T22:19:21;98882.66;;;12.22;80.40
32851;BME280;19202;48.992;8.390;2022-09-28T22:24:59;98885.22;;;12.23;80.02
32851;BME280;19202;48.992;8.390;2022-09-28T22:30:37;98886.91;;;12.24;79.67
32851;BME280;19202;48.992;8.390;2022-09-28T22:36:15;98879.69;;;12.26;79.30
32851;BME280;19202;48.992;8.390;2022-09-28T22:41:53;98882.34;;;12.26;78.82
32851;BME280;19202;48.992;8.390;2022-09-28T22:47:32;98886.91;;;12.24;78.78
32851;BME280;19202;48.992;8.390;2022-09-28T22:53:10;98889.78;;;12.21;78.99
32851;BME280;19202;48.992;8.390;2022-09-28T22:58:50;98884.75;;;12.17;78.96
32851;BME280;19202;48.992;8.390;2022-09-28T23:04:28;98888.66;;;12.11;79.00
32851;BME280;19202;48.992;8.390;2022-09-28T23:10:08;98887.16;;;12.07;78.92
32851;BME280;19202;48.992;8.390;2022-09-28T23:15:57;98885.75;;;12.02;79.11
32851;BME280;19202;48.992;8.390;2022-09-28T23:21:36;98881.22;;;11.89;79.43
32851;BME280;19202;48.992;8.390;2022-09-28T23:27:14;98893.72;;;11.87;79.31
32851;BME280;19202;48.992;8.390;2022-09-28T23:32:52;98893.09;;;11.84;78.89
32851;BME280;19202;48.992;8.390;2022-09-28T23:38:30;98892.22;;;11.83;78.99
32851;BME280;19202;48.992;8.390;2022-09-28T23:44:08;98883.50;;;11.81;78.96
32851;BME280;19202;48.992;8.390;2022-09-28T23:49:46;98894.44;;;11.77;78.82
32851;BME280;19202;48.992;8.390;2022-09-28T23:55:24;98895.25;;;11.63;79.14
